sensor_id;sensor_type;location;lat;lon;timestamp;pressure;altitude;pressure_sealevel;temperature;humidity
29315;BME280;16320;53.954;9.506;2023-03-01T00:01:12;102992.25;;;1.32;100.00
29315;BME280;16320;53.954;9.506;2023-03-01T00:04:16;102991.47;;;1.36;100.00
29315;BME280;16320;53.954;9.506;2023-03-01T00:07:20;102983.66;;;1.34;100.00
29315;BME280;16320;53.954;9.506;2023-03-01T00:10:25;102982.41;;;1.18;100.00
29315;BME280;16320;53.954;9.506;2023-03-01T00:13:30;102977.97;;;1.13;100.00
29315;BME280;16320;53.954;9.506;2023-03-01T00:16:39;102968.72;;;1.22;100.00
29315;BME280;16320;53.954;9.506;2023-03-01T00:19:44;102965.31;;;1.25;100.00
29315;BME280;16320;53.954;9.506;2023-03-01T00:22:48;102971.94;;;1.14;100.00
29315;BME280;16320;53.954;9.506;2023-03-01T00:25:53;102974.44;;;1.09;100.00
29315;BME280;16320;53.954;9.506;2023-03-01T00:28:58;102970.22;;;1.13;100.00
29315;BME280;16320;53.954;9.506;2023-03-01T00:32:04;102971.34;;;1.24;100.00
29315;BME280;16320;53.954;9.506;2023-03-01T00:35:08;102976.56;;;1.25;100.00
29315;BME280;16320;53.954;9.506;2023-03-01T00:38:12;102974.88;;;1.27;100.00
29315;BME280;16320;53.954;9.506;2023-03-01T00:41:19;102975.59;;;1.22;100.00
29315;BME280;16320;53.954;9.506;2023-03-01T00:44:24;102982.56;;;1.24;100.00
29315;BME280;16320;53.954;9.506;2023-03-01T00:47:29;102984.25;;;1.22;100.00
29315;BME280;16320;53.954;9.506;2023-03-01T00:50:33;102992.09;;;1.25;100.00
29315;BME280;16320;53.954;9.506;2023-03-01T00:53:38;102986.88;;;1.24;100.00
29315;BME280;16320;53.954;9.506;2023-03-01T00:56:43;102971.41;;;1.27;100.00
29315;BME280;16320;53.954;9.506;2023-03-01T00:59:47;102980.81;;;1.23;100.00
29315;BME280;16320;53.954;9.506;2023-03-01T01:02:52;102974.88;;;1.27;100.00
29315;BME280;16320;53.954;9.506;2023-03-01T01:05:56;102979.22;;;1.28;100.00
29315;BME280;16320;53.954;9.506;2023-03-01T01:09:05;102979.00;;;1.19;100.00
29315;BME280;16320;53.954;9.506;2023-03-01T01:12:10;102974.41;;;1.07;100.00
29315;BME280;16320;53.954;9.506;2023-03-01T01:15:14;102972.28;;;0.91;100.00
29315;BME280;16320;53.954;9.506;2023-03-01T01:18:20;102976.56;;;0.90;100.00
29315;BME280;16320;53.954;9.506;2023-03-01T01:21:26;102979.00;;;0.84;100.00
29315;BME280;16320;53.954;9.506;2023-03-01T01:24:31;102974.69;;;0.83;100.00
29315;BME280;16320;53.954;9.506;2023-03-01T01:27:36;102982.25;;;0.76;100.00
29315;BME280;16320;53.954;9.506;2023-03-01T01:30:40;102971.69;;;0.68;100.00
29315;BME280;16320;53.954;9.506;2023-03-01T01:33:45;102965.78;;;0.72;100.00
29315;BME280;16320;53.954;9.506;2023-03-01T01:36:54;102956.13;;;0.66;100.00
29315;BME280;16320;53.954;9.506;2023-03-01T01:39:58;102957.13;;;0.71;100.00
29315;BME280;16320;53.954;9.506;2023-03-01T01:43:07;102946.91;;;0.76;100.00
29315;BME280;16320;53.954;9.506;2023-03-01T01:49:45;102944.50;;;0.84;100.00
29315;BME280;16320;53.954;9.506;2023-03-01T01:52:51;102946.09;;;0.79;100.00
29315;BME280;16320;53.954;9.506;2023-03-01T01:55:58;102942.50;;;0.72;100.00
29315;BME280;16320;53.954;9.506;2023-03-01T01:59:04;102939.06;;;0.73;100.00
29315;BME280;16320;53.954;9.506;2023-03-01T02:02:09;102944.38;;;0.79;100.00
29315;BME280;16320;53.954;9.506;2023-03-01T02:05:51;102944.84;;;0.63;100.00
29315;BME280;16320;53.954;9.506;2023-03-01T02:09:02;102936.84;;;0.53;100.00
29315;BME280;16320;53.954;9.506;2023-03-01T02:12:09;102941.28;;;0.58;100.00
29315;BME280;16320;53.954;9.506;2023-03-01T02:15:14;102925.72;;;0.56;100.00
29315;BME280;16320;53.954;9.506;2023-03-01T02:18:20;102928.88;;;0.44;100.00
29315;BME280;16320;53.954;9.506;2023-03-01T02:22:18;102932.31;;;0.45;100.00
29315;BME280;16320;53.954;9.506;2023-03-01T02:28:44;102931.00;;;0.27;100.00
29315;BME280;16320;53.954;9.506;2023-03-01T02:31:49;102925.94;;;0.32;100.00
29315;BME280;16320;53.954;9.506;2023-03-01T02:34:55;102933.78;;;0.35;100.00
29315;BME280;16320;53.954;9.506;2023-03-01T02:38:01;102935.47;;;0.33;100.00
29315;BME280;16320;53.954;9.506;2023-03-01T02:41:08;102942.25;;;0.28;100.00
29315;BME280;16320;53.954;9.506;2023-03-01T02:44:15;102936.91;;;0.22;100.00
29315;BME280;16320;53.954;9.506;2023-03-01T02:47:19;102935.03;;;0.17;100.00
29315;BME280;16320;53.954;9.506;2023-03-01T02:53:57;102928.56;;;0.02;100.00
29315;BME280;16320;53.954;9.506;2023-03-01T02:57:03;102924.22;;;-0.01;100.00
29315;BME280;16320;53.954;9.506;2023-03-01T03:00:12;102920.03;;;0.04;100.00
29315;BME280;16320;53.954;9.506;2023-03-01T03:03:23;102903.69;;;0.04;100.00
29315;BME280;16320;53.954;9.506;2023-03-01T03:06:27;102904.47;;;0.01;100.00
29315;BME280;16320;53.954;9.506;2023-03-01T03:09:32;102906.94;;;-0.02;100.00
29315;BME280;16320;53.954;9.506;2023-03-01T03:12:37;102903.38;;;-0.07;100.00
29315;BME280;16320;53.954;9.506;2023-03-01T03:15:43;102899.34;;;0.03;100.00
29315;BME280;16320;53.954;9.506;2023-03-01T03:18:48;102886.78;;;0.16;100.00
29315;BME280;16320;53.954;9.506;2023-03-01T03:21:52;102896.34;;;0.21;100.00
29315;BME280;16320;53.954;9.506;2023-03-01T03:24:56;102897.44;;;0.29;100.00
29315;BME280;16320;53.954;9.506;2023-03-01T03:28:00;102900.22;;;0.36;100.00
29315;BME280;16320;53.954;9.506;2023-03-01T03:31:07;102905.69;;;0.47;100.00
29315;BME280;16320;53.954;9.506;2023-03-01T03:34:12;102899.59;;;0.47;100.00
29315;BME280;16320;53.954;9.506;2023-03-01T03:37:22;102904.03;;;0.51;100.00
29315;BME280;16320;53.954;9.506;2023-03-01T03:43:51;102913.19;;;0.38;100.00
29315;BME280;16320;53.954;9.506;2023-03-01T03:46:55;102909.84;;;0.42;100.00
29315;BME280;16320;53.954;9.506;2023-03-01T03:49:59;102913.34;;;0.44;100.00
29315;BME280;16320;53.954;9.506;2023-03-01T03:53:11;102920.91;;;0.36;100.00
29315;BME280;16320;53.954;9.506;2023-03-01T03:56:15;102921.91;;;0.42;100.00
29315;BME280;16320;53.954;9.506;2023-03-01T03:59:19;102918.59;;;0.47;100.00
29315;BME280;16320;53.954;9.506;2023-03-01T04:02:24;102917.47;;;0.36;100.00
29315;BME280;16320;53.954;9.506;2023-03-01T04:05:29;102913.97;;;0.35;100.00
29315;BME280;16320;53.954;9.506;2023-03-01T04:08:33;102919.88;;;0.30;100.00
29315;BME280;16320;53.954;9.506;2023-03-01T04:11:38;102918.19;;;0.32;100.00
29315;BME280;16320;53.954;9.506;2023-03-01T04:14:42;102923.97;;;0.22;100.00
29315;BME280;16320;53.954;9.506;2023-03-01T04:17:47;102917.59;;;0.09;100.00
29315;BME280;16320;53.954;9.506;2023-03-01T04:20:53;102920.91;;;0.05;100.00
29315;BME280;16320;53.954;9.506;2023-03-01T04:23:59;102922.03;;;0.14;100.00
29315;BME280;16320;53.954;9.506;2023-03-01T04:27:04;102924.53;;;0.11;100.00
29315;BME280;16320;53.954;9.506;2023-03-01T04:30:09;102926.81;;;-0.01;100.00
29315;BME280;16320;53.954;9.506;2023-03-01T04:33:14;102936.38;;;0.03;100.00
29315;BME280;16320;53.954;9.506;2023-03-01T04:36:22;102932.19;;;0.07;100.00
29315;BME280;16320;53.954;9.506;2023-03-01T04:39:26;102932.28;;;0.10;100.00
29315;BME280;16320;53.954;9.506;2023-03-01T04:42:30;102939.31;;;0.15;100.00
29315;BME280;16320;53.954;9.506;2023-03-01T04:45:35;102949.72;;;0.18;100.00
29315;BME280;16320;53.954;9.506;2023-03-01T04:48:42;102950.00;;;0.28;100.00
29315;BME280;16320;53.954;9.506;2023-03-01T04:51:47;102955.53;;;0.11;100.00
29315;BME280;16320;53.954;9.506;2023-03-01T04:54:51;102953.19;;;-0.13;100.00
29315;BME280;16320;53.954;9.506;2023-03-01T04:57:55;102964.34;;;-0.14;100.00
29315;BME280;16320;53.954;9.506;2023-03-01T05:01:00;102958.31;;;-0.14;100.00
29315;BME280;16320;53.954;9.506;2023-03-01T05:04:04;102960.22;;;-0.07;100.00
29315;BME280;16320;53.954;9.506;2023-03-01T05:07:09;102963.47;;;-0.14;100.00
29315;BME280;16320;53.954;9.506;2023-03-01T05:10:13;102954.09;;;-0.11;100.00
29315;BME280;16320;53.954;9.506;2023-03-01T05:13:20;102957.53;;;-0.10;100.00
29315;BME280;16320;53.954;9.506;2023-03-01T05:16:25;102948.69;;;-0.19;100.00
29315;BME280;16320;53.954;9.506;2023-03-01T05:19:30;102940.78;;;-0.25;100.00
29315;BME280;16320;53.954;9.506;2023-03-01T05:22:35;102943.25;;;-0.28;100.00
29315;BME280;16320;53.954;9.506;2023-03-01T05:25:40;102941.53;;;-0.29;100.00
29315;BME280;16320;53.954;9.506;2023-03-01T05:28:44;102944.34;;;-0.21;100.00
29315;BME280;16320;53.954;9.506;2023-03-01T05:31:48;102939.03;;;-0.26;100.00
29315;BME280;16320;53.954;9.506;2023-03-01T05:34:53;102954.63;;;-0.23;100.00
29315;BME280;16320;53.954;9.506;2023-03-01T05:37:59;102941.66;;;-0.24;100.00
29315;BME280;16320;53.954;9.506;2023-03-01T05:41:04;102943.44;;;-0.22;100.00
29315;BME280;16320;53.954;9.506;2023-03-01T05:44:08;102947.88;;;-0.17;100.00
29315;BME280;16320;53.954;9.506;2023-03-01T05:47:12;102954.88;;;-0.13;100.00
29315;BME280;16320;53.954;9.506;2023-03-01T05:50:26;102955.22;;;-0.01;100.00
29315;BME280;16320;53.954;9.506;2023-03-01T05:53:31;102959.91;;;0.12;100.00
29315;BME280;16320;53.954;9.506;2023-03-01T05:56:36;102967.44;;;0.05;100.00
29315;BME280;16320;53.954;9.506;2023-03-01T05:59:41;102967.56;;;0.09;100.00
29315;BME280;16320;53.954;9.506;2023-03-01T06:02:45;102972.88;;;0.14;100.00
29315;BME280;16320;53.954;9.506;2023-03-01T06:05:50;102961.78;;;0.18;100.00
29315;BME280;16320;53.954;9.506;2023-03-01T06:08:59;102968.78;;;0.22;100.00
29315;BME280;16320;53.954;9.506;2023-03-01T06:12:04;102974.25;;;0.33;100.00
29315;BME280;16320;53.954;9.506;2023-03-01T06:15:11;102975.91;;;0.31;100.00
29315;BME280;16320;53.954;9.506;2023-03-01T06:18:16;102975.41;;;0.44;100.00
29315;BME280;16320;53.954;9.506;2023-03-01T06:21:21;102985.97;;;0.53;100.00
29315;BME280;16320;53.954;9.506;2023-03-01T06:24:25;102975.47;;;0.46;100.00
29315;BME280;16320;53.954;9.506;2023-03-01T06:27:29;102978.00;;;0.44;100.00
29315;BME280;16320;53.954;9.506;2023-03-01T06:30:34;102986.72;;;0.48;100.00
29315;BME280;16320;53.954;9.506;2023-03-01T06:33:39;102990.13;;;0.47;100.00
29315;BME280;16320;53.954;9.506;2023-03-01T06:36:44;102990.47;;;0.59;100.00
29315;BME280;16320;53.954;9.506;2023-03-01T06:39:48;102997.00;;;0.78;100.00
29315;BME280;16320;53.954;9.506;2023-03-01T06:42:53;102985.97;;;0.87;100.00
29315;BME280;16320;53.954;9.506;2023-03-01T06:45:57;102982.53;;;0.86;100.00
29315;BME280;16320;53.954;9.506;2023-03-01T06:49:01;102977.41;;;0.88;100.00
29315;BME280;16320;53.954;9.506;2023-03-01T06:52:08;102980.03;;;0.89;100.00
29315;BME280;16320;53.954;9.506;2023-03-01T06:55:13;102980.84;;;0.88;100.00
29315;BME280;16320;53.954;9.506;2023-03-01T06:58:17;102984.56;;;1.00;100.00
29315;BME280;16320;53.954;9.506;2023-03-01T07:01:22;102982.94;;;1.03;100.00
29315;BME280;16320;53.954;9.506;2023-03-01T07:04:26;102977.66;;;1.00;100.00
29315;BME280;16320;53.954;9.506;2023-03-01T07:07:32;102985.56;;;1.05;100.00
29315;BME280;16320;53.954;9.506;2023-03-01T07:10:37;102996.13;;;1.14;100.00
29315;BME280;16320;53.954;9.506;2023-03-01T07:13:41;103001.41;;;1.17;100.00
29315;BME280;16320;53.954;9.506;2023-03-01T07:16:46;102997.78;;;1.12;100.00
29315;BME280;16320;53.954;9.506;2023-03-01T07:19:50;103007.44;;;1.18;100.00
29315;BME280;16320;53.954;9.506;2023-03-01T07:22:55;103010.06;;;1.19;100.00
29315;BME280;16320;53.954;9.506;2023-03-01T07:26:03;103006.78;;;1.26;100.00
29315;BME280;16320;53.954;9.506;2023-03-01T07:29:10;103010.38;;;1.32;100.00
29315;BME280;16320;53.954;9.506;2023-03-01T07:32:17;103008.84;;;1.40;100.00
29315;BME280;16320;53.954;9.506;2023-03-01T07:35:25;103012.31;;;1.42;100.00
29315;BME280;16320;53.954;9.506;2023-03-01T07:38:31;103021.84;;;1.44;100.00
29315;BME280;16320;53.954;9.506;2023-03-01T07:41:36;103021.94;;;1.48;100.00
29315;BME280;16320;53.954;9.506;2023-03-01T07:44:40;103041.91;;;1.52;100.00
29315;BME280;16320;53.954;9.506;2023-03-01T07:47:54;103041.94;;;1.53;100.00
29315;BME280;16320;53.954;9.506;2023-03-01T07:51:01;103053.47;;;1.66;100.00
29315;BME280;16320;53.954;9.506;2023-03-01T07:54:06;103049.22;;;1.70;100.00
29315;BME280;16320;53.954;9.506;2023-03-01T07:57:11;103051.50;;;1.57;100.00
29315;BME280;16320;53.954;9.506;2023-03-01T08:00:15;103055.00;;;1.58;100.00
29315;BME280;16320;53.954;9.506;2023-03-01T08:03:20;103060.91;;;1.52;100.00
29315;BME280;16320;53.954;9.506;2023-03-01T08:06:24;103054.84;;;1.52;100.00
29315;BME280;16320;53.954;9.506;2023-03-01T08:09:29;103062.59;;;1.50;100.00
29315;BME280;16320;53.954;9.506;2023-03-01T08:12:33;103071.25;;;1.52;100.00
29315;BME280;16320;53.954;9.506;2023-03-01T08:15:38;103063.59;;;1.57;100.00
29315;BME280;16320;53.954;9.506;2023-03-01T08:18:43;103068.81;;;1.58;100.00
29315;BME280;16320;53.954;9.506;2023-03-01T08:21:47;103076.75;;;1.64;100.00
29315;BME280;16320;53.954;9.506;2023-03-01T08:24:52;103076.88;;;1.71;100.00
29315;BME280;16320;53.954;9.506;2023-03-01T08:27:56;103082.13;;;1.74;100.00
29315;BME280;16320;53.954;9.506;2023-03-01T08:31:02;103083.94;;;1.78;100.00
29315;BME280;16320;53.954;9.506;2023-03-01T08:34:11;103082.28;;;1.81;100.00
29315;BME280;16320;53.954;9.506;2023-03-01T08:37:16;103082.59;;;1.94;100.00
29315;BME280;16320;53.954;9.506;2023-03-01T08:40:20;103085.31;;;2.00;100.00
29315;BME280;16320;53.954;9.506;2023-03-01T08:43:25;103081.13;;;2.07;100.00
29315;BME280;16320;53.954;9.506;2023-03-01T08:46:41;103077.50;;;1.98;100.00
29315;BME280;16320;53.954;9.506;2023-03-01T08:49:48;103083.69;;;2.05;100.00
29315;BME280;16320;53.954;9.506;2023-03-01T08:52:52;103087.31;;;2.13;100.00
29315;BME280;16320;53.954;9.506;2023-03-01T08:56:00;103090.81;;;2.15;100.00
29315;BME280;16320;53.954;9.506;2023-03-01T08:59:12;103103.06;;;2.21;100.00
29315;BME280;16320;53.954;9.506;2023-03-01T09:02:18;103094.47;;;2.25;100.00
29315;BME280;16320;53.954;9.506;2023-03-01T09:05:23;103105.06;;;2.34;100.00
29315;BME280;16320;53.954;9.506;2023-03-01T09:08:27;103098.13;;;2.35;100.00
29315;BME280;16320;53.954;9.506;2023-03-01T09:11:32;103102.47;;;2.34;100.00
29315;BME280;16320;53.954;9.506;2023-03-01T09:14:37;103095.41;;;2.29;100.00
29315;BME280;16320;53.954;9.506;2023-03-01T09:17:42;103100.78;;;2.36;100.00
29315;BME280;16320;53.954;9.506;2023-03-01T09:20:47;103105.22;;;2.44;100.00
29315;BME280;16320;53.954;9.506;2023-03-01T09:23:52;103114.84;;;2.48;100.00
29315;BME280;16320;53.954;9.506;2023-03-01T09:26:57;103104.47;;;2.48;100.00
29315;BME280;16320;53.954;9.506;2023-03-01T09:30:02;103109.91;;;2.60;100.00
29315;BME280;16320;53.954;9.506;2023-03-01T09:33:08;103106.50;;;2.64;100.00
29315;BME280;16320;53.954;9.506;2023-03-01T09:36:22;103110.03;;;2.68;100.00
29315;BME280;16320;53.954;9.506;2023-03-01T09:39:26;103105.72;;;2.67;100.00
29315;BME280;16320;53.954;9.506;2023-03-01T09:42:35;103097.00;;;2.65;100.00
29315;BME280;16320;53.954;9.506;2023-03-01T09:45:50;103102.19;;;2.63;100.00
29315;BME280;16320;53.954;9.506;2023-03-01T09:49:05;103107.41;;;2.66;100.00
29315;BME280;16320;53.954;9.506;2023-03-01T09:52:48;103109.19;;;2.69;100.00
29315;BME280;16320;53.954;9.506;2023-03-01T09:56:29;103110.31;;;2.82;100.00
29315;BME280;16320;53.954;9.506;2023-03-01T10:00:14;103109.56;;;2.89;100.00
29315;BME280;16320;53.954;9.506;2023-03-01T10:03:49;103110.50;;;2.91;100.00
29315;BME280;16320;53.954;9.506;2023-03-01T10:10:44;103107.16;;;2.98;100.00
29315;BME280;16320;53.954;9.506;2023-03-01T10:18:04;103093.16;;;2.90;100.00
29315;BME280;16320;53.954;9.506;2023-03-01T10:21:19;103089.81;;;2.97;100.00
29315;BME280;16320;53.954;9.506;2023-03-01T10:24:23;103094.25;;;3.03;100.00
29315;BME280;16320;53.954;9.506;2023-03-01T10:27:53;103081.22;;;3.00;100.00
29315;BME280;16320;53.954;9.506;2023-03-01T10:30:59;103083.94;;;3.06;100.00
29315;BME280;16320;53.954;9.506;2023-03-01T10:37:20;103061.56;;;3.14;100.00
29315;BME280;16320;53.954;9.506;2023-03-01T10:40:26;103052.91;;;3.15;100.00
29315;BME280;16320;53.954;9.506;2023-03-01T10:43:56;103040.78;;;3.14;100.00
29315;BME280;16320;53.954;9.506;2023-03-01T10:47:01;103042.66;;;3.24;100.00
29315;BME280;16320;53.954;9.506;2023-03-01T10:50:20;103033.19;;;3.28;100.00
29315;BME280;16320;53.954;9.506;2023-03-01T10:53:43;103034.16;;;3.33;100.00
29315;BME280;16320;53.954;9.506;2023-03-01T10:57:01;103026.44;;;3.39;100.00
29315;BME280;16320;53.954;9.506;2023-03-01T11:00:25;103025.50;;;3.34;100.00
29315;BME280;16320;53.954;9.506;2023-03-01T11:03:36;103016.72;;;3.26;100.00
29315;BME280;16320;53.954;9.506;2023-03-01T11:06:43;102994.06;;;3.16;100.00
29315;BME280;16320;53.954;9.506;2023-03-01T11:09:47;102988.03;;;3.20;100.00
29315;BME280;16320;53.954;9.506;2023-03-01T11:12:53;102978.59;;;3.25;100.00
29315;BME280;16320;53.954;9.506;2023-03-01T11:16:07;102968.41;;;3.39;100.00
29315;BME280;16320;53.954;9.506;2023-03-01T11:19:18;102960.56;;;3.34;100.00
29315;BME280;16320;53.954;9.506;2023-03-01T11:22:24;102958.78;;;3.30;100.00
29315;BME280;16320;53.954;9.506;2023-03-01T11:25:37;102952.00;;;3.40;100.00
29315;BME280;16320;53.954;9.506;2023-03-01T11:28:42;102957.31;;;3.51;100.00
29315;BME280;16320;53.954;9.506;2023-03-01T11:31:51;102950.13;;;3.31;100.00
29315;BME280;16320;53.954;9.506;2023-03-01T11:35:27;102944.03;;;3.29;100.00
29315;BME280;16320;53.954;9.506;2023-03-01T11:38:35;102925.09;;;3.38;100.00
29315;BME280;16320;53.954;9.506;2023-03-01T11:41:41;102922.69;;;3.52;100.00
29315;BME280;16320;53.954;9.506;2023-03-01T11:44:54;102927.19;;;3.66;100.00
29315;BME280;16320;53.954;9.506;2023-03-01T11:48:23;102912.56;;;3.73;100.00
29315;BME280;16320;53.954;9.506;2023-03-01T11:52:01;102895.47;;;3.94;100.00
29315;BME280;16320;53.954;9.506;2023-03-01T12:02:43;102841.63;;;3.87;100.00
29315;BME280;16320;53.954;9.506;2023-03-01T12:33:58;102788.75;;;3.84;100.00
29315;BME280;16320;53.954;9.506;2023-03-01T12:37:19;102786.22;;;3.91;100.00
29315;BME280;16320;53.954;9.506;2023-03-01T12:41:00;102772.41;;;3.98;100.00
29315;BME280;16320;53.954;9.506;2023-03-01T12:48:14;102759.41;;;3.95;100.00
29315;BME280;16320;53.954;9.506;2023-03-01T12:51:29;102756.81;;;4.01;100.00
29315;BME280;16320;53.954;9.506;2023-03-01T12:54:36;102755.19;;;4.12;100.00
29315;BME280;16320;53.954;9.506;2023-03-01T12:57:48;102744.81;;;4.15;100.00
29315;BME280;16320;53.954;9.506;2023-03-01T13:11:54;102734.53;;;4.31;100.00
29315;BME280;16320;53.954;9.506;2023-03-01T13:14:58;102731.09;;;4.38;100.00
29315;BME280;16320;53.954;9.506;2023-03-01T13:21:31;102712.16;;;4.64;100.00
29315;BME280;16320;53.954;9.506;2023-03-01T13:24:42;102712.34;;;5.19;100.00
29315;BME280;16320;53.954;9.506;2023-03-01T13:27:47;102708.94;;;5.39;100.00
29315;BME280;16320;53.954;9.506;2023-03-01T13:30:51;102691.53;;;5.38;100.00
29315;BME280;16320;53.954;9.506;2023-03-01T13:33:56;102685.47;;;5.34;100.00
29315;BME280;16320;53.954;9.506;2023-03-01T13:37:18;102668.91;;;5.18;100.00
29315;BME280;16320;53.954;9.506;2023-03-01T13:43:31;102655.06;;;5.47;100.00
29315;BME280;16320;53.954;9.506;2023-03-01T13:46:36;102646.38;;;5.63;100.00
29315;BME280;16320;53.954;9.506;2023-03-01T13:50:02;102644.63;;;5.78;100.00
29315;BME280;16320;53.954;9.506;2023-03-01T13:53:24;102623.78;;;5.90;100.00
29315;BME280;16320;53.954;9.506;2023-03-01T13:56:36;102612.47;;;5.83;100.00
29315;BME280;16320;53.954;9.506;2023-03-01T13:59:47;102614.22;;;6.00;100.00
29315;BME280;16320;53.954;9.506;2023-03-01T14:03:12;102613.31;;;6.12;100.00
29315;BME280;16320;53.954;9.506;2023-03-01T14:06:22;102603.78;;;5.98;100.00
29315;BME280;16320;53.954;9.506;2023-03-01T14:09:28;102585.50;;;5.83;100.00
29315;BME280;16320;53.954;9.506;2023-03-01T14:19:56;102595.13;;;5.42;100.00
29315;BME280;16320;53.954;9.506;2023-03-01T14:23:11;102604.69;;;5.54;100.00
29315;BME280;16320;53.954;9.506;2023-03-01T14:26:22;102599.44;;;5.59;100.00
29315;BME280;16320;53.954;9.506;2023-03-01T14:29:39;102589.91;;;5.52;100.00
29315;BME280;16320;53.954;9.506;2023-03-01T14:33:03;102577.75;;;5.20;100.00
29315;BME280;16320;53.954;9.506;2023-03-01T14:36:12;102576.88;;;5.19;100.00
29315;BME280;16320;53.954;9.506;2023-03-01T14:39:23;102583.81;;;5.11;100.00
29315;BME280;16320;53.954;9.506;2023-03-01T14:42:34;102588.16;;;5.00;100.00
29315;BME280;16320;53.954;9.506;2023-03-01T14:45:39;102584.69;;;4.94;100.00
29315;BME280;16320;53.954;9.506;2023-03-01T14:48:54;102582.09;;;5.04;100.00
29315;BME280;16320;53.954;9.506;2023-03-01T14:52:21;102586.44;;;4.95;100.00
29315;BME280;16320;53.954;9.506;2023-03-01T14:55:35;102591.63;;;4.89;100.00
29315;BME280;16320;53.954;9.506;2023-03-01T14:58:40;102589.84;;;4.77;100.00
29315;BME280;16320;53.954;9.506;2023-03-01T15:01:46;102585.50;;;4.72;100.00
29315;BME280;16320;53.954;9.506;2023-03-01T15:04:55;102586.34;;;4.72;100.00
29315;BME280;16320;53.954;9.506;2023-03-01T15:08:02;102592.38;;;4.57;100.00
29315;BME280;16320;53.954;9.506;2023-03-01T15:14:41;102601.06;;;4.53;100.00
29315;BME280;16320;53.954;9.506;2023-03-01T15:17:58;102592.34;;;4.47;100.00
29315;BME280;16320;53.954;9.506;2023-03-01T15:21:27;102594.91;;;4.34;100.00
29315;BME280;16320;53.954;9.506;2023-03-01T15:24:33;102601.81;;;4.25;100.00
29315;BME280;16320;53.954;9.506;2023-03-01T15:27:46;102609.56;;;4.18;100.00
29315;BME280;16320;53.954;9.506;2023-03-01T15:30:58;102613.00;;;4.11;100.00
29315;BME280;16320;53.954;9.506;2023-03-01T15:37:47;102607.84;;;4.24;100.00
29315;BME280;16320;53.954;9.506;2023-03-01T15:40:52;102618.22;;;4.17;100.00
29315;BME280;16320;53.954;9.506;2023-03-01T15:44:33;102608.63;;;4.02;100.00
29315;BME280;16320;53.954;9.506;2023-03-01T15:48:31;102606.78;;;3.84;100.00
29315;BME280;16320;53.954;9.506;2023-03-01T15:51:28;102604.97;;;3.74;100.00
29315;BME280;16320;53.954;9.506;2023-03-01T15:54:34;102602.31;;;3.65;100.00
29315;BME280;16320;53.954;9.506;2023-03-01T15:57:38;102610.91;;;3.55;100.00
29315;BME280;16320;53.954;9.506;2023-03-01T16:00:44;102602.19;;;3.50;100.00
29315;BME280;16320;53.954;9.506;2023-03-01T16:04:03;102610.88;;;3.52;100.00
29315;BME280;16320;53.954;9.506;2023-03-01T16:07:09;102617.81;;;3.53;100.00
29315;BME280;16320;53.954;9.506;2023-03-01T16:10:13;102614.28;;;3.47;100.00
29315;BME280;16320;53.954;9.506;2023-03-01T16:13:18;102610.78;;;3.42;100.00
29315;BME280;16320;53.954;9.506;2023-03-01T16:16:23;102606.47;;;3.43;100.00
29315;BME280;16320;53.954;9.506;2023-03-01T16:19:28;102613.34;;;3.38;100.00
29315;BME280;16320;53.954;9.506;2023-03-01T16:22:32;102602.13;;;3.40;100.00
29315;BME280;16320;53.954;9.506;2023-03-01T16:25:37;102607.28;;;3.37;100.00
29315;BME280;16320;53.954;9.506;2023-03-01T16:28:42;102602.91;;;3.30;100.00
29315;BME280;16320;53.954;9.506;2023-03-01T16:31:47;102598.56;;;3.29;100.00
29315;BME280;16320;53.954;9.506;2023-03-01T16:34:52;102606.28;;;3.23;100.00
29315;BME280;16320;53.954;9.506;2023-03-01T16:37:56;102602.84;;;3.22;100.00
29315;BME280;16320;53.954;9.506;2023-03-01T16:41:00;102601.06;;;3.20;100.00
29315;BME280;16320;53.954;9.506;2023-03-01T16:44:05;102603.56;;;3.07;100.00
29315;BME280;16320;53.954;9.506;2023-03-01T16:47:09;102595.69;;;3.00;100.00
29315;BME280;16320;53.954;9.506;2023-03-01T16:50:14;102597.47;;;3.02;100.00
29315;BME280;16320;53.954;9.506;2023-03-01T16:53:19;102596.53;;;2.97;100.00
29315;BME280;16320;53.954;9.506;2023-03-01T16:56:23;102601.69;;;2.91;100.00
29315;BME280;16320;53.954;9.506;2023-03-01T16:59:44;102603.31;;;2.83;100.00
29315;BME280;16320;53.954;9.506;2023-03-01T17:02:49;102604.09;;;2.75;100.00
29315;BME280;16320;53.954;9.506;2023-03-01T17:05:53;102603.22;;;2.73;100.00
29315;BME280;16320;53.954;9.506;2023-03-01T17:08:59;102603.19;;;2.70;100.00
29315;BME280;16320;53.954;9.506;2023-03-01T17:12:04;102604.03;;;2.71;100.00
29315;BME280;16320;53.954;9.506;2023-03-01T17:15:09;102609.16;;;2.65;100.00
29315;BME280;16320;53.954;9.506;2023-03-01T17:18:15;102607.44;;;2.64;100.00
29315;BME280;16320;53.954;9.506;2023-03-01T17:21:20;102607.28;;;2.51;100.00
29315;BME280;16320;53.954;9.506;2023-03-01T17:24:24;102613.41;;;2.58;100.00
29315;BME280;16320;53.954;9.506;2023-03-01T17:27:29;102607.34;;;2.58;100.00
29315;BME280;16320;53.954;9.506;2023-03-01T17:30:33;102607.38;;;2.59;100.00
29315;BME280;16320;53.954;9.506;2023-03-01T17:33:40;102610.81;;;2.60;100.00
29315;BME280;16320;53.954;9.506;2023-03-01T17:36:44;102609.13;;;2.62;100.00
29315;BME280;16320;53.954;9.506;2023-03-01T17:39:50;102616.94;;;2.63;100.00
29315;BME280;16320;53.954;9.506;2023-03-01T17:42:53;102622.13;;;2.63;100.00
29315;BME280;16320;53.954;9.506;2023-03-01T17:45:58;102629.91;;;2.63;100.00
29315;BME280;16320;53.954;9.506;2023-03-01T17:49:02;102623.81;;;2.61;100.00
29315;BME280;16320;53.954;9.506;2023-03-01T17:52:07;102634.16;;;2.58;100.00
29315;BME280;16320;53.954;9.506;2023-03-01T17:55:11;102632.28;;;2.45;100.00
29315;BME280;16320;53.954;9.506;2023-03-01T17:58:16;102641.69;;;2.38;100.00
29315;BME280;16320;53.954;9.506;2023-03-01T18:01:25;102652.03;;;2.35;100.00